sensor_id;sensor_type;location;lat;lon;timestamp;temperature;humidity
2024;DHT22;1016;48.770;9.154;2023-11-19T00:02:23;12.70;99.90
2024;DHT22;1016;48.770;9.154;2023-11-19T00:04:49;12.60;99.90
2024;DHT22;1016;48.770;9.154;2023-11-19T00:07:16;12.60;99.90
2024;DHT22;1016;48.770;9.154;2023-11-19T00:09:42;12.60;99.90
2024;DHT22;1016;48.770;9.154;2023-11-19T00:12:09;12.60;99.90
2024;DHT22;1016;48.770;9.154;2023-11-19T00:14:34;12.60;99.90
2024;DHT22;1016;48.770;9.154;2023-11-19T00:17:00;12.60;99.90
2024;DHT22;1016;48.770;9.154;2023-11-19T00:19:26;12.60;99.90
2024;DHT22;1016;48.770;9.154;2023-11-19T00:21:52;12.60;99.90
2024;DHT22;1016;48.770;9.154;2023-11-19T00:24:17;12.60;99.90
2024;DHT22;1016;48.770;9.154;2023-11-19T00:26:43;12.60;99.90
2024;DHT22;1016;48.770;9.154;2023-11-19T00:29:09;12.60;99.90
2024;DHT22;1016;48.770;9.154;2023-11-19T00:31:35;12.60;99.90
2024;DHT22;1016;48.770;9.154;2023-11-19T00:34:01;12.60;99.90
2024;DHT22;1016;48.770;9.154;2023-11-19T00:36:27;12.60;99.90
2024;DHT22;1016;48.770;9.154;2023-11-19T00:38:53;12.70;99.90
2024;DHT22;1016;48.770;9.154;2023-11-19T00:41:19;12.50;99.90
2024;DHT22;1016;48.770;9.154;2023-11-19T00:43:45;12.50;99.90
2024;DHT22;1016;48.770;9.154;2023-11-19T00:46:10;12.50;99.90
2024;DHT22;1016;48.770;9.154;2023-11-19T00:48:42;12.60;99.90
2024;DHT22;1016;48.770;9.154;2023-11-19T00:51:07;12.50;99.90
2024;DHT22;1016;48.770;9.154;2023-11-19T00:53:33;12.60;99.90
2024;DHT22;1016;48.770;9.154;2023-11-19T00:55:59;12.70;99.90
2024;DHT22;1016;48.770;9.154;2023-11-19T00:58:25;12.60;99.90
2024;DHT22;1016;48.770;9.154;2023-11-19T01:00:51;12.70;99.90
2024;DHT22;1016;48.770;9.154;2023-11-19T01:03:17;12.90;99.90
2024;DHT22;1016;48.770;9.154;2023-11-19T01:05:42;12.80;99.90
2024;DHT22;1016;48.770;9.154;2023-11-19T01:08:09;12.80;99.90
2024;DHT22;1016;48.770;9.154;2023-11-19T01:10:37;12.80;99.90
2024;DHT22;1016;48.770;9.154;2023-11-19T01:13:03;12.90;99.90
2024;DHT22;1016;48.770;9.154;2023-11-19T01:15:31;12.90;99.90
2024;DHT22;1016;48.770;9.154;2023-11-19T01:17:57;12.90;99.90
2024;DHT22;1016;48.770;9.154;2023-11-19T01:20:23;12.90;99.90
2024;DHT22;1016;48.770;9.154;2023-11-19T01:22:49;12.90;99.90
2024;DHT22;1016;48.770;9.154;2023-11-19T01:25:14;12.90;99.90
2024;DHT22;1016;48.770;9.154;2023-11-19T01:27:40;13.10;99.90
2024;DHT22;1016;48.770;9.154;2023-11-19T01:30:06;13.00;99.90
2024;DHT22;1016;48.770;9.154;2023-11-19T01:32:35;13.00;99.90
2024;DHT22;1016;48.770;9.154;2023-11-19T01:35:02;13.00;99.90
2024;DHT22;1016;48.770;9.154;2023-11-19T01:37:28;13.00;99.90
2024;DHT22;1016;48.770;9.154;2023-11-19T01:39:53;13.10;99.90
2024;DHT22;1016;48.770;9.154;2023-11-19T01:42:19;13.10;99.90
2024;DHT22;1016;48.770;9.154;2023-11-19T01:44:58;13.10;99.90
2024;DHT22;1016;48.770;9.154;2023-11-19T01:47:24;13.10;99.90
2024;DHT22;1016;48.770;9.154;2023-11-19T01:49:51;13.10;99.90
2024;DHT22;1016;48.770;9.154;2023-11-19T01:52:17;13.10;99.90
2024;DHT22;1016;48.770;9.154;2023-11-19T01:54:43;13.10;99.90
2024;DHT22;1016;48.770;9.154;2023-11-19T01:57:09;13.20;99.90
2024;DHT22;1016;48.770;9.154;2023-11-19T01:59:34;13.20;99.90
2024;DHT22;1016;48.770;9.154;2023-11-19T02:02:00;13.30;99.90
2024;DHT22;1016;48.770;9.154;2023-11-19T02:04:26;13.20;99.90
2024;DHT22;1016;48.770;9.154;2023-11-19T02:06:54;13.20;99.90
2024;DHT22;1016;48.770;9.154;2023-11-19T02:09:21;13.20;99.90
2024;DHT22;1016;48.770;9.154;2023-11-19T02:11:47;13.20;99.90
2024;DHT22;1016;48.770;9.154;2023-11-19T02:14:17;13.30;99.90
2024;DHT22;1016;48.770;9.154;2023-11-19T02:16:43;13.30;99.90
2024;DHT22;1016;48.770;9.154;2023-11-19T02:19:08;13.30;99.90
2024;DHT22;1016;48.770;9.154;2023-11-19T02:21:37;13.30;99.90
2024;DHT22;1016;48.770;9.154;2023-11-19T02:24:06;13.50;99.90
2024;DHT22;1016;48.770;9.154;2023-11-19T02:29:21;13.40;99.90
2024;DHT22;1016;48.770;9.154;2023-11-19T02:31:47;13.40;99.90
2024;DHT22;1016;48.770;9.154;2023-11-19T02:34:13;13.40;99.90
2024;DHT22;1016;48.770;9.154;2023-11-19T02:36:39;13.40;99.90
2024;DHT22;1016;48.770;9.154;2023-11-19T02:39:07;13.40;99.90
2024;DHT22;1016;48.770;9.154;2023-11-19T02:41:36;13.50;99.90
2024;DHT22;1016;48.770;9.154;2023-11-19T02:44:05;13.40;99.90
2024;DHT22;1016;48.770;9.154;2023-11-19T02:46:31;13.40;99.90
2024;DHT22;1016;48.770;9.154;2023-11-19T02:48:57;13.40;99.90
2024;DHT22;1016;48.770;9.154;2023-11-19T02:51:23;13.40;99.90
2024;DHT22;1016;48.770;9.154;2023-11-19T02:53:49;13.40;99.90
2024;DHT22;1016;48.770;9.154;2023-11-19T02:56:15;13.40;99.90
2024;DHT22;1016;48.770;9.154;2023-11-19T02:58:46;13.40;99.90
2024;DHT22;1016;48.770;9.154;2023-11-19T03:01:12;13.50;99.90
2024;DHT22;1016;48.770;9.154;2023-11-19T03:03:48;13.50;99.90
2024;DHT22;1016;48.770;9.154;2023-11-19T03:06:19;13.50;99.90
2024;DHT22;1016;48.770;9.154;2023-11-19T03:08:45;13.50;99.90
2024;DHT22;1016;48.770;9.154;2023-11-19T03:11:10;13.50;99.90
2024;DHT22;1016;48.770;9.154;2023-11-19T03:13:36;13.50;99.90
2024;DHT22;1016;48.770;9.154;2023-11-19T03:16:02;13.50;99.90
2024;DHT22;1016;48.770;9.154;2023-11-19T03:18:27;13.50;99.90
2024;DHT22;1016;48.770;9.154;2023-11-19T03:20:53;13.50;99.90
2024;DHT22;1016;48.770;9.154;2023-11-19T03:23:19;13.50;99.90
2024;DHT22;1016;48.770;9.154;2023-11-19T03:25:45;13.50;99.90
2024;DHT22;1016;48.770;9.154;2023-11-19T03:28:10;13.50;99.90
2024;DHT22;1016;48.770;9.154;2023-11-19T03:30:36;13.50;99.90
2024;DHT22;1016;48.770;9.154;2023-11-19T03:33:02;13.50;99.90
2024;DHT22;1016;48.770;9.154;2023-11-19T03:35:28;13.60;99.90
2024;DHT22;1016;48.770;9.154;2023-11-19T03:37:53;13.60;99.90
2024;DHT22;1016;48.770;9.154;2023-11-19T03:40:19;13.50;99.90
2024;DHT22;1016;48.770;9.154;2023-11-19T03:42:47;13.70;99.90
2024;DHT22;1016;48.770;9.154;2023-11-19T03:45:13;13.60;99.90
2024;DHT22;1016;48.770;9.154;2023-11-19T03:47:39;13.60;99.90
2024;DHT22;1016;48.770;9.154;2023-11-19T03:50:05;13.60;99.90
2024;DHT22;1016;48.770;9.154;2023-11-19T03:52:32;13.60;99.90
2024;DHT22;1016;48.770;9.154;2023-11-19T03:54:59;13.60;99.90
2024;DHT22;1016;48.770;9.154;2023-11-19T03:57:25;13.60;99.90
2024;DHT22;1016;48.770;9.154;2023-11-19T03:59:50;13.60;99.90
2024;DHT22;1016;48.770;9.154;2023-11-19T04:02:17;13.60;99.90
2024;DHT22;1016;48.770;9.154;2023-11-19T04:04:43;13.70;99.90
2024;DHT22;1016;48.770;9.154;2023-11-19T04:07:08;13.70;99.90
2024;DHT22;1016;48.770;9.154;2023-11-19T04:09:34;13.70;99.90
2024;DHT22;1016;48.770;9.154;2023-11-19T04:12:01;13.90;99.90
2024;DHT22;1016;48.770;9.154;2023-11-19T04:14:27;13.70;99.90
2024;DHT22;1016;48.770;9.154;2023-11-19T04:16:53;13.70;99.90
2024;DHT22;1016;48.770;9.154;2023-11-19T04:19:19;13.80;99.90
2024;DHT22;1016;48.770;9.154;2023-11-19T04:21:45;13.70;99.90
2024;DHT22;1016;48.770;9.154;2023-11-19T04:24:11;13.70;99.90
2024;DHT22;1016;48.770;9.154;2023-11-19T04:26:44;13.70;99.90
2024;DHT22;1016;48.770;9.154;2023-11-19T04:29:16;13.70;99.90
2024;DHT22;1016;48.770;9.154;2023-11-19T04:31:45;13.80;99.90
2024;DHT22;1016;48.770;9.154;2023-11-19T04:34:11;13.80;99.90
2024;DHT22;1016;48.770;9.154;2023-11-19T04:36:37;14.00;99.90
2024;DHT22;1016;48.770;9.154;2023-11-19T04:39:03;13.80;99.90
2024;DHT22;1016;48.770;9.154;2023-11-19T04:41:49;13.80;99.90
2024;DHT22;1016;48.770;9.154;2023-11-19T04:44:15;14.00;99.90
2024;DHT22;1016;48.770;9.154;2023-11-19T04:46:41;14.00;99.90
2024;DHT22;1016;48.770;9.154;2023-11-19T04:49:11;13.80;99.90
2024;DHT22;1016;48.770;9.154;2023-11-19T04:51:44;13.80;99.90
2024;DHT22;1016;48.770;9.154;2023-11-19T04:54:11;13.90;99.90
2024;DHT22;1016;48.770;9.154;2023-11-19T04:56:37;14.00;99.90
2024;DHT22;1016;48.770;9.154;2023-11-19T04:59:03;13.80;99.90
2024;DHT22;1016;48.770;9.154;2023-11-19T05:01:33;13.80;99.90
2024;DHT22;1016;48.770;9.154;2023-11-19T05:03:59;13.80;99.90
2024;DHT22;1016;48.770;9.154;2023-11-19T05:06:27;13.90;99.90
2024;DHT22;1016;48.770;9.154;2023-11-19T05:08:53;13.80;99.90
2024;DHT22;1016;48.770;9.154;2023-11-19T05:11:19;13.80;99.90
2024;DHT22;1016;48.770;9.154;2023-11-19T05:13:45;14.00;99.90
2024;DHT22;1016;48.770;9.154;2023-11-19T05:16:11;13.90;99.90
2024;DHT22;1016;48.770;9.154;2023-11-19T05:18:39;13.90;99.90
2024;DHT22;1016;48.770;9.154;2023-11-19T05:21:05;13.90;99.90
2024;DHT22;1016;48.770;9.154;2023-11-19T05:23:32;14.20;99.90
2024;DHT22;1016;48.770;9.154;2023-11-19T05:26:01;13.90;99.90
2024;DHT22;1016;48.770;9.154;2023-11-19T05:28:26;13.90;99.90
2024;DHT22;1016;48.770;9.154;2023-11-19T05:30:52;14.00;99.90
2024;DHT22;1016;48.770;9.154;2023-11-19T05:33:17;14.00;99.90
2024;DHT22;1016;48.770;9.154;2023-11-19T05:35:43;14.00;99.90
2024;DHT22;1016;48.770;9.154;2023-11-19T05:38:08;14.00;99.90
2024;DHT22;1016;48.770;9.154;2023-11-19T05:40:35;13.90;99.90
2024;DHT22;1016;48.770;9.154;2023-11-19T05:43:01;13.90;99.90
2024;DHT22;1016;48.770;9.154;2023-11-19T05:45:27;13.90;99.90
2024;DHT22;1016;48.770;9.154;2023-11-19T05:47:52;14.10;99.90
2024;DHT22;1016;48.770;9.154;2023-11-19T05:50:18;13.90;99.90
2024;DHT22;1016;48.770;9.154;2023-11-19T05:52:44;13.90;99.90
2024;DHT22;1016;48.770;9.154;2023-11-19T05:55:09;13.90;99.90
2024;DHT22;1016;48.770;9.154;2023-11-19T05:57:38;13.90;99.90
2024;DHT22;1016;48.770;9.154;2023-11-19T06:00:05;13.80;99.90
2024;DHT22;1016;48.770;9.154;2023-11-19T06:02:35;13.80;99.90
2024;DHT22;1016;48.770;9.154;2023-11-19T06:05:03;13.80;99.90
2024;DHT22;1016;48.770;9.154;2023-11-19T06:07:31;13.80;99.90
2024;DHT22;1016;48.770;9.154;2023-11-19T06:09:56;13.80;99.90
2024;DHT22;1016;48.770;9.154;2023-11-19T06:12:22;13.80;99.90
2024;DHT22;1016;48.770;9.154;2023-11-19T06:14:47;13.80;99.90
2024;DHT22;1016;48.770;9.154;2023-11-19T06:17:13;13.80;99.90
2024;DHT22;1016;48.770;9.154;2023-11-19T06:19:39;13.80;99.90
2024;DHT22;1016;48.770;9.154;2023-11-19T06:22:04;13.80;99.90
2024;DHT22;1016;48.770;9.154;2023-11-19T06:24:30;13.80;99.90
2024;DHT22;1016;48.770;9.154;2023-11-19T06:26:56;13.80;99.90
2024;DHT22;1016;48.770;9.154;2023-11-19T06:29:21;13.80;99.90
2024;DHT22;1016;48.770;9.154;2023-11-19T06:31:47;13.80;99.90
2024;DHT22;1016;48.770;9.154;2023-11-19T06:34:15;13.80;99.90
2024;DHT22;1016;48.770;9.154;2023-11-19T06:36:43;13.80;99.90
2024;DHT22;1016;48.770;9.154;2023-11-19T06:39:09;13.80;99.90
2024;DHT22;1016;48.770;9.154;2023-11-19T06:41:36;13.80;99.90
2024;DHT22;1016;48.770;9.154;2023-11-19T06:44:03;13.80;99.90
2024;DHT22;1016;48.770;9.154;2023-11-19T06:46:30;13.80;99.90
2024;DHT22;1016;48.770;9.154;2023-11-19T06:48:56;13.90;99.90
2024;DHT22;1016;48.770;9.154;2023-11-19T06:51:23;13.90;99.90
2024;DHT22;1016;48.770;9.154;2023-11-19T06:53:54;13.80;99.90
2024;DHT22;1016;48.770;9.154;2023-11-19T06:56:24;13.80;99.90
2024;DHT22;1016;48.770;9.154;2023-11-19T06:58:50;13.90;99.90
2024;DHT22;1016;48.770;9.154;2023-11-19T07:01:16;13.90;99.90
2024;DHT22;1016;48.770;9.154;2023-11-19T07:03:54;13.90;99.90
2024;DHT22;1016;48.770;9.154;2023-11-19T07:06:23;13.90;99.90
2024;DHT22;1016;48.770;9.154;2023-11-19T07:08:48;13.90;99.90
2024;DHT22;1016;48.770;9.154;2023-11-19T07:11:14;13.90;99.90
2024;DHT22;1016;48.770;9.154;2023-11-19T07:13:59;14.00;99.90
2024;DHT22;1016;48.770;9.154;2023-11-19T07:16:26;13.90;99.90
2024;DHT22;1016;48.770;9.154;2023-11-19T07:18:51;13.90;99.90
2024;DHT22;1016;48.770;9.154;2023-11-19T07:21:17;13.90;99.90
2024;DHT22;1016;48.770;9.154;2023-11-19T07:23:42;13.90;99.90
2024;DHT22;1016;48.770;9.154;2023-11-19T07:26:09;13.90;99.90
2024;DHT22;1016;48.770;9.154;2023-11-19T07:28:35;14.10;99.90
2024;DHT22;1016;48.770;9.154;2023-11-19T07:31:00;14.00;99.90
2024;DHT22;1016;48.770;9.154;2023-11-19T07:33:26;14.00;99.90
2024;DHT22;1016;48.770;9.154;2023-11-19T07:35:52;14.00;99.90
2024;DHT22;1016;48.770;9.154;2023-11-19T07:38:17;14.00;99.90
2024;DHT22;1016;48.770;9.154;2023-11-19T07:40:52;14.00;99.90
2024;DHT22;1016;48.770;9.154;2023-11-19T07:43:18;14.20;99.90
2024;DHT22;1016;48.770;9.154;2023-11-19T07:45:43;14.00;99.90
2024;DHT22;1016;48.770;9.154;2023-11-19T07:48:11;14.20;99.90
2024;DHT22;1016;48.770;9.154;2023-11-19T07:50:41;14.10;99.90
2024;DHT22;1016;48.770;9.154;2023-11-19T07:53:07;14.00;99.90
2024;DHT22;1016;48.770;9.154;2023-11-19T07:55:34;14.10;99.90
2024;DHT22;1016;48.770;9.154;2023-11-19T07:57:59;14.10;99.90
2024;DHT22;1016;48.770;9.154;2023-11-19T08:00:25;14.30;99.90
2024;DHT22;1016;48.770;9.154;2023-11-19T08:02:50;14.10;99.90
2024;DHT22;1016;48.770;9.154;2023-11-19T08:05:16;14.20;99.90
2024;DHT22;1016;48.770;9.154;2023-11-19T08:07:45;14.20;99.90
2024;DHT22;1016;48.770;9.154;2023-11-19T08:10:11;14.20;99.90
2024;DHT22;1016;48.770;9.154;2023-11-19T08:12:40;14.20;99.90
2024;DHT22;1016;48.770;9.154;2023-11-19T08:15:08;14.20;99.90
2024;DHT22;1016;48.770;9.154;2023-11-19T08:17:34;14.20;99.90
2024;DHT22;1016;48.770;9.154;2023-11-19T08:20:00;14.20;99.90
2024;DHT22;1016;48.770;9.154;2023-11-19T08:22:27;14.30;99.90
2024;DHT22;1016;48.770;9.154;2023-11-19T08:24:54;14.30;99.90
2024;DHT22;1016;48.770;9.154;2023-11-19T08:27:19;14.30;99.90
2024;DHT22;1016;48.770;9.154;2023-11-19T08:29:54;14.30;99.90
2024;DHT22;1016;48.770;9.154;2023-11-19T08:32:26;14.30;99.90
2024;DHT22;1016;48.770;9.154;2023-11-19T08:34:54;14.30;99.90
2024;DHT22;1016;48.770;9.154;2023-11-19T08:37:21;14.50;99.90
2024;DHT22;1016;48.770;9.154;2023-11-19T08:39:50;14.30;99.90
2024;DHT22;1016;48.770;9.154;2023-11-19T08:42:17;14.60;99.90
2024;DHT22;1016;48.770;9.154;2023-11-19T08:44:49;14.30;99.90
2024;DHT22;1016;48.770;9.154;2023-11-19T08:47:18;14.40;99.90
2024;DHT22;1016;48.770;9.154;2023-11-19T08:49:45;14.40;99.90
2024;DHT22;1016;48.770;9.154;2023-11-19T08:52:12;14.40;99.90
2024;DHT22;1016;48.770;9.154;2023-11-19T08:54:37;14.40;99.90
2024;DHT22;1016;48.770;9.154;2023-11-19T08:57:04;14.40;99.90
2024;DHT22;1016;48.770;9.154;2023-11-19T08:59:32;14.50;99.90
2024;DHT22;1016;48.770;9.154;2023-11-19T09:02:00;14.50;99.90
2024;DHT22;1016;48.770;9.154;2023-11-19T09:04:28;14.40;99.90
2024;DHT22;1016;48.770;9.154;2023-11-19T09:06:54;14.60;99.90
2024;DHT22;1016;48.770;9.154;2023-11-19T09:09:24;14.50;99.90
2024;DHT22;1016;48.770;9.154;2023-11-19T09:11:52;14.60;99.90
2024;DHT22;1016;48.770;9.154;2023-11-19T09:14:18;14.60;99.90
2024;DHT22;1016;48.770;9.154;2023-11-19T09:16:44;14.60;99.90
2024;DHT22;1016;48.770;9.154;2023-11-19T09:19:12;14.60;99.90
2024;DHT22;1016;48.770;9.154;2023-11-19T09:21:37;14.60;99.90
2024;DHT22;1016;48.770;9.154;2023-11-19T09:24:05;14.70;99.90
2024;DHT22;1016;48.770;9.154;2023-11-19T09:26:31;14.60;99.90
2024;DHT22;1016;48.770;9.154;2023-11-19T09:28:57;14.60;99.90
2024;DHT22;1016;48.770;9.154;2023-11-19T09:31:22;14.80;99.90
2024;DHT22;1016;48.770;9.154;2023-11-19T09:33:50;14.70;99.90
2024;DHT22;1016;48.770;9.154;2023-11-19T09:36:17;14.80;99.90
2024;DHT22;1016;48.770;9.154;2023-11-19T09:38:47;14.70;99.90
2024;DHT22;1016;48.770;9.154;2023-11-19T09:41:13;14.80;99.90
2024;DHT22;1016;48.770;9.154;2023-11-19T09:43:44;14.70;99.90
2024;DHT22;1016;48.770;9.154;2023-11-19T09:46:10;14.70;99.90
2024;DHT22;1016;48.770;9.154;2023-11-19T09:48:38;14.80;99.90
2024;DHT22;1016;48.770;9.154;2023-11-19T09:51:08;14.70;99.90
2024;DHT22;1016;48.770;9.154;2023-11-19T09:53:37;14.90;99.90
2024;DHT22;1016;48.770;9.154;2023-11-19T09:56:06;14.90;99.90
2024;DHT22;1016;48.770;9.154;2023-11-19T09:58:33;14.70;99.90
2024;DHT22;1016;48.770;9.154;2023-11-19T10:00:59;14.70;99.90
2024;DHT22;1016;48.770;9.154;2023-11-19T10:03:27;14.80;99.90
2024;DHT22;1016;48.770;9.154;2023-11-19T10:05:57;14.80;99.90
2024;DHT22;1016;48.770;9.154;2023-11-19T10:08:23;14.80;99.90
2024;DHT22;1016;48.770;9.154;2023-11-19T10:10:49;14.80;99.90
2024;DHT22;1016;48.770;9.154;2023-11-19T10:13:19;14.90;99.90
2024;DHT22;1016;48.770;9.154;2023-11-19T10:15:51;14.80;99.90
2024;DHT22;1016;48.770;9.154;2023-11-19T10:18:17;14.90;99.90
2024;DHT22;1016;48.770;9.154;2023-11-19T10:20:43;14.80;99.90
2024;DHT22;1016;48.770;9.154;2023-11-19T10:23:11;14.80;99.90
2024;DHT22;1016;48.770;9.154;2023-11-19T10:25:39;14.80;99.90
2024;DHT22;1016;48.770;9.154;2023-11-19T10:28:07;14.80;99.90
2024;DHT22;1016;48.770;9.154;2023-11-19T10:30:35;14.80;99.90
2024;DHT22;1016;48.770;9.154;2023-11-19T10:33:05;14.80;99.90
2024;DHT22;1016;48.770;9.154;2023-11-19T10:35:32;14.80;99.90
2024;DHT22;1016;48.770;9.154;2023-11-19T10:37:59;14.80;99.90
2024;DHT22;1016;48.770;9.154;2023-11-19T10:40:37;14.80;99.90
2024;DHT22;1016;48.770;9.154;2023-11-19T10:43:05;15.00;99.90
2024;DHT22;1016;48.770;9.154;2023-11-19T10:45:33;15.00;99.90
2024;DHT22;1016;48.770;9.154;2023-11-19T10:47:59;14.80;99.90
2024;DHT22;1016;48.770;9.154;2023-11-19T10:50:26;14.90;99.90
2024;DHT22;1016;48.770;9.154;2023-11-19T10:52:57;14.80;99.90
2024;DHT22;1016;48.770;9.154;2023-11-19T10:55:28;14.60;99.90
2024;DHT22;1016;48.770;9.154;2023-11-19T10:57:59;14.50;99.90
2024;DHT22;1016;48.770;9.154;2023-11-19T11:00:26;14.50;99.90
2024;DHT22;1016;48.770;9.154;2023-11-19T11:02:56;14.40;99.90
2024;DHT22;1016;48.770;9.154;2023-11-19T11:05:26;14.30;99.90
2024;DHT22;1016;48.770;9.154;2023-11-19T11:07:52;14.20;99.90
2024;DHT22;1016;48.770;9.154;2023-11-19T11:10:21;14.40;99.90
2024;DHT22;1016;48.770;9.154;2023-11-19T11:12:48;14.40;99.90
2024;DHT22;1016;48.770;9.154;2023-11-19T11:15:18;14.20;99.90
2024;DHT22;1016;48.770;9.154;2023-11-19T11:17:45;14.10;99.90
2024;DHT22;1016;48.770;9.154;2023-11-19T11:20:11;14.10;99.90
2024;DHT22;1016;48.770;9.154;2023-11-19T11:28:49;14.10;99.90
2024;DHT22;1016;48.770;9.154;2023-11-19T11:39:35;13.90;99.90
2024;DHT22;1016;48.770;9.154;2023-11-19T11:47:25;13.70;99.90
2024;DHT22;1016;48.770;9.154;2023-11-19T11:49:53;13.70;99.90
2024;DHT22;1016;48.770;9.154;2023-11-19T11:52:19;13.70;99.90
2024;DHT22;1016;48.770;9.154;2023-11-19T11:54:45;13.70;99.90
2024;DHT22;1016;48.770;9.154;2023-11-19T11:57:12;13.70;99.90
2024;DHT22;1016;48.770;9.154;2023-11-19T12:02:08;13.60;99.90
2024;DHT22;1016;48.770;9.154;2023-11-19T12:04:40;13.60;99.90
2024;DHT22;1016;48.770;9.154;2023-11-19T12:07:16;13.80;99.90
2024;DHT22;1016;48.770;9.154;2023-11-19T12:09:47;13.80;99.90
2024;DHT22;1016;48.770;9.154;2023-11-19T12:20:03;13.80;99.90
2024;DHT22;1016;48.770;9.154;2023-11-19T12:22:31;13.70;99.90
2024;DHT22;1016;48.770;9.154;2023-11-19T12:24:57;13.70;99.90
2024;DHT22;1016;48.770;9.154;2023-11-19T12:27:23;13.80;99.90
2024;DHT22;1016;48.770;9.154;2023-11-19T12:29:56;13.90;99.90
2024;DHT22;1016;48.770;9.154;2023-11-19T12:32:22;13.90;99.90
2024;DHT22;1016;48.770;9.154;2023-11-19T12:34:51;13.90;99.90
2024;DHT22;1016;48.770;9.154;2023-11-19T12:37:17;14.00;99.90
2024;DHT22;1016;48.770;9.154;2023-11-19T12:39:42;13.80;99.90
2024;DHT22;1016;48.770;9.154;2023-11-19T12:42:08;14.00;99.90
2024;DHT22;1016;48.770;9.154;2023-11-19T12:44:48;14.00;99.90
2024;DHT22;1016;48.770;9.154;2023-11-19T12:47:17;14.00;99.90
2024;DHT22;1016;48.770;9.154;2023-11-19T12:49:43;13.80;99.90
2024;DHT22;1016;48.770;9.154;2023-11-19T12:52:12;14.00;99.90
2024;DHT22;1016;48.770;9.154;2023-11-19T12:54:38;13.80;99.90
2024;DHT22;1016;48.770;9.154;2023-11-19T12:57:04;13.80;99.90
2024;DHT22;1016;48.770;9.154;2023-11-19T12:59:31;13.80;99.90
2024;DHT22;1016;48.770;9.154;2023-11-19T13:04:22;13.80;99.90
2024;DHT22;1016;48.770;9.154;2023-11-19T13:06:52;13.80;99.90
2024;DHT22;1016;48.770;9.154;2023-11-19T13:09:25;14.00;99.90
2024;DHT22;1016;48.770;9.154;2023-11-19T13:11:51;13.80;99.90
2024;DHT22;1016;48.770;9.154;2023-11-19T13:14:18;14.00;99.90
2024;DHT22;1016;48.770;9.154;2023-11-19T13:16:44;13.80;99.90
2024;DHT22;1016;48.770;9.154;2023-11-19T13:19:12;13.80;99.90
2024;DHT22;1016;48.770;9.154;2023-11-19T13:21:38;13.80;99.90
2024;DHT22;1016;48.770;9.154;2023-11-19T13:24:08;13.80;99.90
2024;DHT22;1016;48.770;9.154;2023-11-19T13:26:35;13.80;99.90
2024;DHT22;1016;48.770;9.154;2023-11-19T13:29:01;13.80;99.90
2024;DHT22;1016;48.770;9.154;2023-11-19T13:31:28;13.80;99.90
2024;DHT22;1016;48.770;9.154;2023-11-19T13:33:57;13.80;99.90
2024;DHT22;1016;48.770;9.154;2023-11-19T13:36:24;13.90;99.90
2024;DHT22;1016;48.770;9.154;2023-11-19T13:38:55;13.90;99.90
2024;DHT22;1016;48.770;9.154;2023-11-19T13:41:25;13.80;99.90
2024;DHT22;1016;48.770;9.154;2023-11-19T13:43:51;13.80;99.90
2024;DHT22;1016;48.770;9.154;2023-11-19T13:46:16;13.70;99.90
2024;DHT22;1016;48.770;9.154;2023-11-19T13:48:49;13.90;99.90
2024;DHT22;1016;48.770;9.154;2023-11-19T13:51:15;13.80;99.90
2024;DHT22;1016;48.770;9.154;2023-11-19T13:53:41;13.80;99.90
2024;DHT22;1016;48.770;9.154;2023-11-19T13:56:09;13.80;99.90
2024;DHT22;1016;48.770;9.154;2023-11-19T13:58:34;13.80;99.90
2024;DHT22;1016;48.770;9.154;2023-11-19T14:01:00;13.80;99.90
2024;DHT22;1016;48.770;9.154;2023-11-19T14:03:27;13.80;99.90
2024;DHT22;1016;48.770;9.154;2023-11-19T14:05:52;14.00;99.90
2024;DHT22;1016;48.770;9.154;2023-11-19T14:08:20;13.80;99.90
2024;DHT22;1016;48.770;9.154;2023-11-19T14:10:46;13.70;99.90
2024;DHT22;1016;48.770;9.154;2023-11-19T14:13:11;13.70;99.90
2024;DHT22;1016;48.770;9.154;2023-11-19T14:15:42;13.70;99.90
2024;DHT22;1016;48.770;9.154;2023-11-19T14:18:07;13.70;99.90
2024;DHT22;1016;48.770;9.154;2023-11-19T14:20:33;13.70;99.90
2024;DHT22;1016;48.770;9.154;2023-11-19T14:23:06;13.70;99.90
2024;DHT22;1016;48.770;9.154;2023-11-19T14:25:34;13.70;99.90
2024;DHT22;1016;48.770;9.154;2023-11-19T14:28:04;13.70;99.90
2024;DHT22;1016;48.770;9.154;2023-11-19T14:30:30;13.70;99.90
2024;DHT22;1016;48.770;9.154;2023-11-19T14:32:58;13.70;99.90
2024;DHT22;1016;48.770;9.154;2023-11-19T14:35:23;13.70;99.90
2024;DHT22;1016;48.770;9.154;2023-11-19T14:37:52;13.70;99.90
2024;DHT22;1016;48.770;9.154;2023-11-19T14:40:18;13.70;99.90
2024;DHT22;1016;48.770;9.154;2023-11-19T14:42:49;13.70;99.90
2024;DHT22;1016;48.770;9.154;2023-11-19T14:45:17;13.80;99.90
2024;DHT22;1016;48.770;9.154;2023-11-19T14:47:46;13.70;99.90
2024;DHT22;1016;48.770;9.154;2023-11-19T14:50:17;13.70;99.90
2024;DHT22;1016;48.770;9.154;2023-11-19T14:52:42;13.60;99.90
2024;DHT22;1016;48.770;9.154;2023-11-19T14:55:08;13.60;99.90
2024;DHT22;1016;48.770;9.154;2023-11-19T14:57:35;13.70;99.90
2024;DHT22;1016;48.770;9.154;2023-11-19T15:00:05;13.80;99.90
2024;DHT22;1016;48.770;9.154;2023-11-19T15:02:41;13.60;99.90
2024;DHT22;1016;48.770;9.154;2023-11-19T15:05:08;13.70;99.90
2024;DHT22;1016;48.770;9.154;2023-11-19T15:07:37;13.60;99.90
2024;DHT22;1016;48.770;9.154;2023-11-19T15:10:04;13.80;99.90
2024;DHT22;1016;48.770;9.154;2023-11-19T15:12:36;13.60;99.90
2024;DHT22;1016;48.770;9.154;2023-11-19T15:15:08;13.60;99.90
2024;DHT22;1016;48.770;9.154;2023-11-19T15:17:49;13.60;99.90
2024;DHT22;1016;48.770;9.154;2023-11-19T15:20:14;13.60;99.90
2024;DHT22;1016;48.770;9.154;2023-11-19T15:22:43;13.60;99.90
2024;DHT22;1016;48.770;9.154;2023-11-19T15:25:09;13.70;99.90
2024;DHT22;1016;48.770;9.154;2023-11-19T15:27:36;13.60;99.90
2024;DHT22;1016;48.770;9.154;2023-11-19T15:30:07;13.70;99.90
2024;DHT22;1016;48.770;9.154;2023-11-19T15:32:42;13.50;99.90
2024;DHT22;1016;48.770;9.154;2023-11-19T15:35:11;13.70;99.90
2024;DHT22;1016;48.770;9.154;2023-11-19T15:37:38;13.50;99.90
2024;DHT22;1016;48.770;9.154;2023-11-19T15:40:10;13.50;99.90
2024;DHT22;1016;48.770;9.154;2023-11-19T15:42:38;13.60;99.90
2024;DHT22;1016;48.770;9.154;2023-11-19T15:45:05;13.50;99.90
2024;DHT22;1016;48.770;9.154;2023-11-19T15:47:32;13.50;99.90
2024;DHT22;1016;48.770;9.154;2023-11-19T15:50:02;13.50;99.90
2024;DHT22;1016;48.770;9.154;2023-11-19T15:52:31;13.40;99.90
2024;DHT22;1016;48.770;9.154;2023-11-19T15:54:57;13.50;99.90
2024;DHT22;1016;48.770;9.154;2023-11-19T15:57:23;13.50;99.90
2024;DHT22;1016;48.770;9.154;2023-11-19T15:59:52;13.50;99.90
2024;DHT22;1016;48.770;9.154;2023-11-19T16:02:19;13.50;99.90
2024;DHT22;1016;48.770;9.154;2023-11-19T16:04:44;13.50;99.90
2024;DHT22;1016;48.770;9.154;2023-11-19T16:07:14;13.60;99.90
2024;DHT22;1016;48.770;9.154;2023-11-19T16:09:39;13.50;99.90
2024;DHT22;1016;48.770;9.154;2023-11-19T16:12:09;13.50;99.90
2024;DHT22;1016;48.770;9.154;2023-11-19T16:14:38;13.50;99.90
2024;DHT22;1016;48.770;9.154;2023-11-19T16:17:11;13.60;99.90
2024;DHT22;1016;48.770;9.154;2023-11-19T16:19:37;13.60;99.90
2024;DHT22;1016;48.770;9.154;2023-11-19T16:22:03;13.60;99.90
2024;DHT22;1016;48.770;9.154;2023-11-19T16:24:35;13.50;99.90
2024;DHT22;1016;48.770;9.154;2023-11-19T16:27:05;13.50;99.90
2024;DHT22;1016;48.770;9.154;2023-11-19T16:29:31;13.40;99.90
2024;DHT22;1016;48.770;9.154;2023-11-19T16:31:57;13.50;99.90
2024;DHT22;1016;48.770;9.154;2023-11-19T16:34:22;13.40;99.90
2024;DHT22;1016;48.770;9.154;2023-11-19T16:36:49;13.60;99.90
2024;DHT22;1016;48.770;9.154;2023-11-19T16:39:15;13.40;99.90